createdAt,value
2022-11-07T00:01:51.221Z,11.70
2022-11-07T00:04:19.161Z,11.55
2022-11-07T00:06:47.528Z,11.32
2022-11-07T00:09:16.929Z,10.97
2022-11-07T00:11:44.692Z,11.00
2022-11-07T00:14:13.270Z,11.04
2022-11-07T00:16:41.512Z,10.98
2022-11-07T00:19:09.269Z,11.14
2022-11-07T00:21:38.297Z,11.19
2022-11-07T00:24:07.204Z,11.05
2022-11-07T00:26:36.931Z,10.96
2022-11-07T00:29:05.950Z,10.80
2022-11-07T00:31:34.144Z,10.81
2022-11-07T00:34:01.924Z,10.92
2022-11-07T00:36:30.220Z,10.99
2022-11-07T00:38:58.408Z,11.05
2022-11-07T00:41:26.647Z,11.03
2022-11-07T00:43:55.994Z,11.12
2022-11-07T00:46:24.905Z,11.44
2022-11-07T00:48:53.037Z,11.35
2022-11-07T00:51:23.247Z,11.35
2022-11-07T00:53:51.847Z,11.38
2022-11-07T00:56:21.754Z,11.44
2022-11-07T00:58:49.845Z,11.35
2022-11-07T01:01:21.132Z,11.35
2022-11-07T01:04:07.677Z,11.35
2022-11-07T01:06:38.215Z,11.23
2022-11-07T01:09:06.669Z,11.20
2022-11-07T01:11:36.289Z,11.16
2022-11-07T01:14:05.386Z,11.11
2022-11-07T01:16:35.545Z,11.12
2022-11-07T01:19:04.386Z,11.16
2022-11-07T01:21:32.743Z,11.13
2022-11-07T01:24:01.395Z,11.07
2022-11-07T01:26:29.189Z,11.07
2022-11-07T01:28:57.336Z,11.06
2022-11-07T01:31:25.095Z,10.99
2022-11-07T01:33:54.473Z,10.90
2022-11-07T01:36:22.332Z,10.93
2022-11-07T01:38:50.191Z,10.84
2022-11-07T01:41:22.770Z,10.84
2022-11-07T01:43:52.829Z,10.79
2022-11-07T01:46:21.524Z,10.70
2022-11-07T01:48:53.660Z,10.69
2022-11-07T01:51:24.897Z,10.74
2022-11-07T01:53:54.580Z,10.73
2022-11-07T01:56:27.207Z,10.77
2022-11-07T01:58:56.322Z,10.78
2022-11-07T02:01:24.689Z,10.73
2022-11-07T02:03:54.813Z,10.57
2022-11-07T02:06:28.942Z,10.49
2022-11-07T02:08:56.942Z,10.29
2022-11-07T02:11:25.323Z,10.28
2022-11-07T02:13:53.153Z,10.16
2022-11-07T02:16:23.168Z,10.09
2022-11-07T02:18:51.281Z,9.99
2022-11-07T02:21:31.165Z,9.95
2022-11-07T02:24:07.183Z,9.99
2022-11-07T02:26:38.170Z,10.06
2022-11-07T02:29:10.197Z,9.98
2022-11-07T02:31:38.028Z,9.99
2022-11-07T02:34:05.866Z,9.99
2022-11-07T02:36:34.220Z,9.92
2022-11-07T02:39:02.083Z,9.89
2022-11-07T02:41:34.744Z,9.88
2022-11-07T02:44:08.465Z,9.88
2022-11-07T02:46:37.344Z,9.92
2022-11-07T02:49:05.181Z,9.91
2022-11-07T02:51:33.290Z,9.86
2022-11-07T02:54:01.145Z,9.99
2022-11-07T02:56:28.971Z,9.93
2022-11-07T02:58:57.084Z,10.03
2022-11-07T03:01:26.373Z,10.07
2022-11-07T03:03:54.377Z,10.36
2022-11-07T03:06:25.280Z,10.37
2022-11-07T03:08:53.346Z,10.49
2022-11-07T03:11:21.273Z,10.57
2022-11-07T03:13:50.061Z,10.42
2022-11-07T03:16:19.347Z,10.36
2022-11-07T03:18:48.668Z,10.39
2022-11-07T03:21:16.592Z,10.50
2022-11-07T03:23:44.461Z,10.49
2022-11-07T03:26:12.437Z,10.48
2022-11-07T03:28:40.698Z,10.52
2022-11-07T03:31:08.643Z,10.47
2022-11-07T03:33:36.461Z,10.43
2022-11-07T03:36:06.412Z,10.32
2022-11-07T03:38:34.350Z,10.35
2022-11-07T03:41:02.222Z,10.43
2022-11-07T03:43:30.034Z,10.34
2022-11-07T03:45:57.928Z,10.33
2022-11-07T03:48:25.732Z,10.44
2022-11-07T03:50:53.551Z,10.39
2022-11-07T03:53:25.817Z,10.22
2022-11-07T03:55:55.711Z,10.22
2022-11-07T03:58:24.033Z,10.25
2022-11-07T04:00:51.951Z,10.36
2022-11-07T04:03:19.772Z,10.32
2022-11-07T04:05:47.623Z,10.38
2022-11-07T04:08:15.496Z,10.16
2022-11-07T04:10:44.645Z,10.13
2022-11-07T04:13:35.528Z,10.14
2022-11-07T04:16:20.905Z,10.34
2022-11-07T04:18:48.741Z,10.19
2022-11-07T04:21:16.645Z,10.09
2022-11-07T04:23:44.443Z,10.06
2022-11-07T04:26:31.246Z,10.34
2022-11-07T04:28:59.115Z,10.54
2022-11-07T04:31:26.936Z,11.02
2022-11-07T04:33:54.697Z,10.55
2022-11-07T04:36:22.573Z,10.67
2022-11-07T04:38:50.334Z,10.97
2022-11-07T04:41:22.099Z,11.12
2022-11-07T04:43:49.911Z,11.22
2022-11-07T04:46:18.168Z,11.21
2022-11-07T04:48:46.198Z,11.46
2022-11-07T04:51:19.757Z,11.58
2022-11-07T04:53:47.612Z,11.50
2022-11-07T04:56:15.444Z,11.61
2022-11-07T04:58:44.833Z,11.30
2022-11-07T05:01:12.823Z,11.27
2022-11-07T05:03:42.199Z,11.52
2022-11-07T05:06:14.923Z,11.57
2022-11-07T05:08:42.870Z,11.60
2022-11-07T05:11:10.730Z,11.17
2022-11-07T05:13:38.647Z,10.80
2022-11-07T05:16:12.889Z,10.61
2022-11-07T05:18:40.919Z,10.43
2022-11-07T05:21:08.820Z,10.79
2022-11-07T05:23:35.647Z,11.04
2022-11-07T05:26:03.708Z,11.07
2022-11-07T05:28:39.170Z,11.08
2022-11-07T05:31:09.832Z,11.00
2022-11-07T05:33:37.682Z,10.86
2022-11-07T05:36:13.941Z,10.41
2022-11-07T05:38:43.172Z,10.37
2022-11-07T05:41:11.076Z,10.51
2022-11-07T05:43:39.402Z,10.61
2022-11-07T05:46:09.063Z,10.49
2022-11-07T05:48:37.642Z,10.44
2022-11-07T05:51:06.756Z,10.40
2022-11-07T05:53:35.180Z,10.38
2022-11-07T05:56:03.198Z,10.53
2022-11-07T05:58:31.848Z,10.64
2022-11-07T06:01:02.957Z,10.57
2022-11-07T06:03:32.789Z,10.49
2022-11-07T06:06:00.919Z,10.40
2022-11-07T06:08:28.811Z,10.22
2022-11-07T06:10:56.828Z,10.25
2022-11-07T06:13:25.027Z,10.18
2022-11-07T06:15:52.887Z,10.14
2022-11-07T06:18:22.305Z,9.56
2022-11-07T06:20:51.568Z,8.72
2022-11-07T06:23:20.165Z,8.31
2022-11-07T06:25:48.358Z,7.97
2022-11-07T06:28:16.614Z,7.87
2022-11-07T06:30:44.684Z,7.82
2022-11-07T06:33:14.227Z,7.78
2022-11-07T06:35:42.805Z,7.79
2022-11-07T06:38:13.672Z,7.89
2022-11-07T06:40:42.659Z,7.91
2022-11-07T06:43:14.147Z,7.97
2022-11-07T06:45:43.346Z,8.02
2022-11-07T06:48:12.164Z,8.07
2022-11-07T06:50:40.282Z,8.12
2022-11-07T06:53:10.363Z,8.23
2022-11-07T06:55:40.397Z,8.23
2022-11-07T06:58:08.326Z,8.28
2022-11-07T07:00:37.390Z,8.45
2022-11-07T07:03:06.119Z,8.70
2022-11-07T07:05:34.176Z,8.87
2022-11-07T07:08:02.336Z,8.87
2022-11-07T07:10:30.308Z,8.81
2022-11-07T07:13:01.455Z,8.83
2022-11-07T07:15:35.279Z,8.86
2022-11-07T07:18:10.089Z,8.89
2022-11-07T07:20:37.990Z,8.95
2022-11-07T07:23:06.037Z,9.02
2022-11-07T07:25:34.074Z,9.16
2022-11-07T07:28:03.323Z,9.26
2022-11-07T07:30:31.274Z,9.32
2022-11-07T07:32:59.240Z,9.49
2022-11-07T07:35:27.096Z,9.66
2022-11-07T07:37:55.022Z,9.79
2022-11-07T07:40:23.239Z,9.88
2022-11-07T07:42:51.139Z,10.10
2022-11-07T07:45:20.367Z,10.35
2022-11-07T07:47:48.257Z,10.51
2022-11-07T07:50:16.383Z,10.61
2022-11-07T07:52:44.231Z,10.75
2022-11-07T07:55:12.122Z,10.81
2022-11-07T07:57:41.605Z,10.91
2022-11-07T08:00:11.033Z,10.91
2022-11-07T08:02:44.084Z,11.04
2022-11-07T08:05:13.288Z,10.95
2022-11-07T08:07:48.658Z,11.06
2022-11-07T08:10:43.030Z,11.20
2022-11-07T08:13:05.093Z,11.31
2022-11-07T08:15:32.854Z,11.46
2022-11-07T08:18:05.281Z,11.52
2022-11-07T08:20:33.262Z,11.56
2022-11-07T08:23:02.612Z,11.62
2022-11-07T08:25:30.448Z,11.77
2022-11-07T08:27:58.406Z,11.80
2022-11-07T08:30:27.175Z,11.82
2022-11-07T08:32:56.551Z,12.01
2022-11-07T08:35:25.765Z,12.13
2022-11-07T08:37:53.741Z,12.18
2022-11-07T08:40:21.650Z,12.23
2022-11-07T08:42:49.828Z,12.34
2022-11-07T08:45:17.822Z,12.59
2022-11-07T08:47:45.668Z,12.75
2022-11-07T08:50:13.528Z,12.87
2022-11-07T08:52:42.800Z,12.80
2022-11-07T08:55:11.449Z,12.89
2022-11-07T08:57:39.262Z,12.98
2022-11-07T09:00:08.368Z,13.18
2022-11-07T09:05:25.064Z,13.08
2022-11-07T09:07:54.246Z,13.11
2022-11-07T09:10:22.111Z,13.24
2022-11-07T09:12:51.222Z,13.22
2022-11-07T09:15:20.117Z,13.19
2022-11-07T09:17:48.815Z,13.30
2022-11-07T09:20:16.776Z,13.51
2022-11-07T09:22:44.733Z,13.59
2022-11-07T09:25:14.721Z,13.55
2022-11-07T09:27:43.069Z,13.55
2022-11-07T09:30:12.301Z,13.59
2022-11-07T09:32:47.223Z,13.64
2022-11-07T09:35:15.861Z,13.54
2022-11-07T09:37:43.810Z,13.61
2022-11-07T09:40:24.736Z,13.75
2022-11-07T09:43:06.093Z,13.65
2022-11-07T09:45:46.038Z,13.83
2022-11-07T09:48:21.049Z,13.81
2022-11-07T09:50:50.144Z,13.94
2022-11-07T09:53:26.952Z,14.05
2022-11-07T09:55:58.706Z,14.14
2022-11-07T09:58:32.379Z,14.41
2022-11-07T10:01:04.033Z,14.58
2022-11-07T10:03:32.912Z,14.64
2022-11-07T10:06:07.214Z,14.55
2022-11-07T10:08:42.061Z,14.33
2022-11-07T10:11:17.755Z,14.42
2022-11-07T10:13:54.645Z,14.07
2022-11-07T10:16:33.179Z,14.11
2022-11-07T10:19:13.815Z,14.27
2022-11-07T10:21:50.396Z,14.12
2022-11-07T10:24:52.203Z,14.26
2022-11-07T10:27:23.299Z,14.62
2022-11-07T10:29:54.578Z,14.58
2022-11-07T10:32:26.172Z,14.41
2022-11-07T10:35:00.384Z,14.70
2022-11-07T10:37:28.175Z,14.80
2022-11-07T10:39:56.013Z,14.68
2022-11-07T10:42:30.630Z,14.59
2022-11-07T10:45:00.408Z,14.70
2022-11-07T10:47:28.690Z,14.64
2022-11-07T10:49:59.250Z,14.59
2022-11-07T10:52:29.003Z,14.73
2022-11-07T10:55:07.582Z,14.48
2022-11-07T10:57:37.124Z,14.67
2022-11-07T11:00:22.563Z,14.88
2022-11-07T11:02:51.096Z,14.68
2022-11-07T11:05:23.891Z,14.68
2022-11-07T11:07:52.327Z,14.76
2022-11-07T11:10:22.717Z,14.50
2022-11-07T11:12:52.081Z,14.57
2022-11-07T11:15:21.895Z,14.56
2022-11-07T11:17:59.374Z,14.61
2022-11-07T11:20:36.694Z,14.58
2022-11-07T11:23:07.394Z,14.46
2022-11-07T11:25:44.742Z,14.29
2022-11-07T11:28:21.758Z,14.23
2022-11-07T11:30:57.046Z,14.25
2022-11-07T11:33:31.307Z,14.39
2022-11-07T11:36:04.082Z,14.32
2022-11-07T11:38:37.426Z,14.39
2022-11-07T11:41:16.038Z,14.43
2022-11-07T11:43:50.479Z,14.47
2022-11-07T11:46:27.695Z,14.40
2022-11-07T11:49:01.780Z,14.48
2022-11-07T11:51:39.718Z,14.57
2022-11-07T11:54:10.824Z,14.34
2022-11-07T11:56:52.727Z,14.47
2022-11-07T11:59:43.620Z,14.55
2022-11-07T12:02:31.075Z,14.73
2022-11-07T12:05:11.449Z,15.06
2022-11-07T12:07:52.810Z,15.10
2022-11-07T12:10:27.199Z,14.91
2022-11-07T12:13:09.727Z,15.13
2022-11-07T12:15:53.204Z,15.57
2022-11-07T12:18:32.148Z,15.50
2022-11-07T12:21:14.399Z,15.50
2022-11-07T12:23:56.608Z,15.99
2022-11-07T12:26:29.208Z,15.42
2022-11-07T12:29:05.468Z,15.87
2022-11-07T12:31:48.031Z,15.72
2022-11-07T12:34:31.401Z,15.84
2022-11-07T12:37:16.178Z,15.80
2022-11-07T12:40:04.485Z,15.70
2022-11-07T12:42:47.018Z,15.25
2022-11-07T12:45:23.621Z,15.26
2022-11-07T12:48:13.476Z,15.20
2022-11-07T12:50:48.834Z,15.25
2022-11-07T12:53:29.205Z,15.33
2022-11-07T12:56:01.861Z,15.32
2022-11-07T12:58:33.082Z,15.14
2022-11-07T13:01:02.038Z,14.92
2022-11-07T13:03:49.685Z,14.99
2022-11-07T13:06:26.766Z,15.35
2022-11-07T13:09:02.883Z,15.58
2022-11-07T13:11:38.468Z,15.33
2022-11-07T13:14:24.059Z,15.14
2022-11-07T13:16:55.264Z,15.01
2022-11-07T13:19:33.270Z,14.88
2022-11-07T13:22:03.893Z,14.77
2022-11-07T13:24:33.036Z,14.84
2022-11-07T13:27:01.204Z,15.09
2022-11-07T13:29:36.703Z,15.33
2022-11-07T13:32:10.433Z,15.18
2022-11-07T13:34:46.487Z,15.06
2022-11-07T13:37:21.610Z,14.84
2022-11-07T13:39:55.345Z,14.67
2022-11-07T13:42:26.894Z,14.58
2022-11-07T13:44:57.810Z,14.48
2022-11-07T13:47:32.509Z,14.46
2022-11-07T13:50:09.365Z,14.39
2022-11-07T13:52:45.007Z,14.42
2022-11-07T13:55:18.553Z,14.47
2022-11-07T13:57:53.215Z,14.57
2022-11-07T14:00:21.468Z,14.47
2022-11-07T14:02:54.375Z,14.42
2022-11-07T14:05:26.011Z,14.23
2022-11-07T14:07:57.945Z,14.06
2022-11-07T14:10:30.592Z,14.00
2022-11-07T14:13:07.282Z,13.97
2022-11-07T14:15:37.074Z,13.91
2022-11-07T14:18:05.494Z,13.91
2022-11-07T14:20:34.636Z,13.81
2022-11-07T14:23:02.444Z,13.78
2022-11-07T14:25:32.931Z,13.76
2022-11-07T14:28:02.742Z,13.81
2022-11-07T14:30:31.629Z,13.85
2022-11-07T14:33:02.051Z,13.99
2022-11-07T14:35:32.321Z,14.21
2022-11-07T14:38:10.479Z,14.22
2022-11-07T14:40:39.185Z,14.04
2022-11-07T14:43:07.169Z,13.98
2022-11-07T14:48:27.549Z,13.74
2022-11-07T14:50:56.225Z,13.65
2022-11-07T14:53:28.875Z,13.50
2022-11-07T14:56:00.155Z,13.33
2022-11-07T14:58:30.299Z,13.17
2022-11-07T15:00:59.897Z,13.03
2022-11-07T15:03:33.067Z,12.93
2022-11-07T15:06:00.916Z,12.79
2022-11-07T15:08:32.032Z,12.62
2022-11-07T15:11:05.831Z,12.51
2022-11-07T15:13:36.524Z,12.31
2022-11-07T15:16:07.186Z,12.17
2022-11-07T15:18:39.976Z,12.07
2022-11-07T15:21:11.294Z,12.01
2022-11-07T15:23:40.506Z,11.99
2022-11-07T15:26:12.940Z,11.87
2022-11-07T15:28:48.720Z,11.78
2022-11-07T15:31:21.489Z,11.73
2022-11-07T15:33:49.683Z,11.65
2022-11-07T15:36:17.914Z,11.60
2022-11-07T15:38:48.195Z,11.55
2022-11-07T15:41:16.446Z,11.49
2022-11-07T15:43:44.641Z,11.46
2022-11-07T15:46:23.197Z,11.41
2022-11-07T15:48:51.102Z,11.35
2022-11-07T15:51:18.878Z,11.27
2022-11-07T15:53:48.128Z,11.20
2022-11-07T15:56:17.948Z,11.17
2022-11-07T15:58:45.865Z,11.10
2022-11-07T16:01:14.070Z,11.00
2022-11-07T16:03:41.868Z,10.94
2022-11-07T16:06:17.172Z,10.69
2022-11-07T16:08:45.151Z,10.55
2022-11-07T16:11:14.247Z,10.47
2022-11-07T16:13:42.043Z,10.39
2022-11-07T16:16:19.100Z,10.28
2022-11-07T16:18:49.643Z,10.16
2022-11-07T16:21:17.800Z,10.08
2022-11-07T16:23:47.966Z,10.00
2022-11-07T16:26:20.504Z,9.93
2022-11-07T16:28:48.269Z,9.86
2022-11-07T16:31:16.121Z,9.81
2022-11-07T16:33:44.011Z,9.74
2022-11-07T16:36:20.720Z,9.65
2022-11-07T16:38:49.273Z,9.62
2022-11-07T16:41:18.867Z,9.54
2022-11-07T16:43:47.692Z,9.53
2022-11-07T16:46:18.270Z,9.53
2022-11-07T16:48:48.180Z,9.46
2022-11-07T16:51:17.616Z,9.43
2022-11-07T16:53:46.051Z,9.42
2022-11-07T16:56:24.462Z,9.37
2022-11-07T16:58:54.474Z,9.34
2022-11-07T17:01:23.482Z,9.31
2022-11-07T17:03:51.899Z,9.26
2022-11-07T17:06:23.068Z,9.22
2022-11-07T17:08:50.878Z,9.18
2022-11-07T17:11:19.520Z,9.15
2022-11-07T17:13:48.790Z,9.14
2022-11-07T17:16:20.828Z,9.15
2022-11-07T17:18:49.423Z,9.16
2022-11-07T17:21:26.568Z,9.16
2022-11-07T17:23:55.892Z,9.17
2022-11-07T17:26:26.287Z,9.21
2022-11-07T17:28:55.440Z,9.24
2022-11-07T17:31:23.328Z,9.29
2022-11-07T17:33:51.134Z,9.31
2022-11-07T17:36:35.276Z,9.26
2022-11-07T17:39:07.919Z,9.21
2022-11-07T17:41:35.686Z,9.15
2022-11-07T17:44:05.444Z,9.09
2022-11-07T17:46:35.453Z,9.02
2022-11-07T17:49:06.808Z,8.99
2022-11-07T17:51:35.918Z,8.94
2022-11-07T17:54:04.998Z,8.97
2022-11-07T17:56:34.397Z,8.96
2022-11-07T17:59:11.330Z,8.95
2022-11-07T18:01:40.548Z,8.91
2022-11-07T18:04:10.253Z,8.87
2022-11-07T18:06:39.637Z,8.83
2022-11-07T18:09:12.029Z,8.79
2022-11-07T18:11:39.830Z,8.75
2022-11-07T18:14:10.414Z,8.74
2022-11-07T18:16:38.324Z,8.71
2022-11-07T18:19:06.631Z,8.67
2022-11-07T18:21:34.467Z,8.62
2022-11-07T18:24:02.425Z,8.65
2022-11-07T18:26:31.931Z,8.68
2022-11-07T18:29:02.981Z,8.72
2022-11-07T18:31:32.629Z,8.67
2022-11-07T18:34:04.153Z,8.63
2022-11-07T18:36:35.055Z,8.56
2022-11-07T18:39:03.679Z,8.50
2022-11-07T18:41:31.618Z,8.43
2022-11-07T18:44:04.519Z,8.41
2022-11-07T18:46:34.557Z,8.32
2022-11-07T18:49:02.546Z,8.32
2022-11-07T18:51:30.456Z,8.27
2022-11-07T18:54:01.089Z,8.21
2022-11-07T18:56:29.062Z,8.23
2022-11-07T18:58:57.476Z,8.23
2022-11-07T19:01:28.211Z,8.19
2022-11-07T19:03:59.669Z,8.17
2022-11-07T19:06:29.859Z,8.17
2022-11-07T19:08:57.723Z,8.18
2022-11-07T19:11:29.212Z,8.15
2022-11-07T19:14:00.066Z,8.14
2022-11-07T19:16:28.159Z,8.09
2022-11-07T19:18:59.441Z,8.02
2022-11-07T19:21:27.301Z,7.98
2022-11-07T19:23:55.120Z,7.90
2022-11-07T19:26:24.463Z,7.88
2022-11-07T19:28:53.825Z,7.89
2022-11-07T19:31:21.803Z,7.88
2022-11-07T19:33:49.681Z,7.88
2022-11-07T19:36:21.405Z,7.86
2022-11-07T19:38:49.898Z,7.86
2022-11-07T19:41:18.840Z,7.83
2022-11-07T19:43:49.834Z,7.80
2022-11-07T19:46:23.302Z,7.76
2022-11-07T19:48:56.850Z,7.71
2022-11-07T19:51:26.027Z,7.70
2022-11-07T19:53:55.270Z,7.71
2022-11-07T19:56:24.388Z,7.62
2022-11-07T19:58:52.624Z,7.59
2022-11-07T20:01:22.590Z,7.52
2022-11-07T20:03:53.086Z,7.49
2022-11-07T20:06:22.920Z,7.50
2022-11-07T20:08:52.662Z,7.45
2022-11-07T20:11:22.817Z,7.41
2022-11-07T20:13:50.738Z,7.40
2022-11-07T20:16:21.372Z,7.44
2022-11-07T20:18:49.735Z,7.45
2022-11-07T20:21:19.705Z,7.41
2022-11-07T20:23:48.801Z,7.38
2022-11-07T20:26:21.333Z,7.36
2022-11-07T20:28:49.983Z,7.36
2022-11-07T20:31:22.593Z,7.37
2022-11-07T20:33:51.044Z,7.38
2022-11-07T20:36:19.556Z,7.33
2022-11-07T20:38:47.436Z,7.34
2022-11-07T20:41:15.638Z,7.34
2022-11-07T20:43:44.757Z,7.31
2022-11-07T20:46:14.743Z,7.25
2022-11-07T20:48:43.512Z,7.24
2022-11-07T20:51:12.318Z,7.21
2022-11-07T20:53:43.206Z,7.12
2022-11-07T20:56:15.633Z,7.13
2022-11-07T20:58:45.118Z,7.04
2022-11-07T21:01:15.167Z,7.05
2022-11-07T21:03:43.088Z,7.05
2022-11-07T21:06:12.328Z,7.05
2022-11-07T21:08:41.132Z,7.05
2022-11-07T21:11:09.417Z,7.09
2022-11-07T21:13:37.908Z,7.10
2022-11-07T21:16:08.395Z,7.07
2022-11-07T21:18:37.478Z,7.05
2022-11-07T21:21:09.585Z,6.91
2022-11-07T21:23:38.806Z,6.94
2022-11-07T21:26:08.139Z,6.92
2022-11-07T21:28:36.885Z,6.95
2022-11-07T21:31:09.481Z,7.01
2022-11-07T21:33:37.289Z,7.01
2022-11-07T21:36:09.799Z,7.00
2022-11-07T21:38:39.601Z,6.97
2022-11-07T21:41:08.035Z,6.94
2022-11-07T21:43:36.510Z,6.96
2022-11-07T21:46:10.503Z,6.97
2022-11-07T21:48:38.884Z,6.97
2022-11-07T21:51:08.260Z,6.94
2022-11-07T21:53:37.972Z,7.03
2022-11-07T21:56:07.365Z,7.01
2022-11-07T21:58:37.497Z,7.07
2022-11-07T22:01:06.658Z,7.18
2022-11-07T22:04:04.351Z,7.24
2022-11-07T22:06:23.659Z,7.17
2022-11-07T22:08:52.581Z,7.26
2022-11-07T22:11:20.687Z,7.28
2022-11-07T22:13:48.436Z,7.31
2022-11-07T22:16:18.562Z,7.27
2022-11-07T22:18:48.561Z,7.22
2022-11-07T22:21:18.808Z,7.14
2022-11-07T22:23:46.735Z,7.11
2022-11-07T22:26:16.757Z,7.06
2022-11-07T22:28:46.263Z,7.06
2022-11-07T22:31:20.400Z,7.05
2022-11-07T22:33:50.127Z,7.09
2022-11-07T22:36:18.884Z,7.08
2022-11-07T22:38:46.811Z,7.07
2022-11-07T22:41:16.636Z,7.07
2022-11-07T22:43:44.471Z,7.07
2022-11-07T22:46:14.329Z,7.06
2022-11-07T22:48:42.603Z,7.03
2022-11-07T22:51:14.188Z,6.96
2022-11-07T22:53:42.409Z,7.00
2022-11-07T22:56:10.914Z,6.96
2022-11-07T22:58:39.501Z,6.94
2022-11-07T23:01:14.291Z,6.91
2022-11-07T23:03:44.755Z,6.90
2022-11-07T23:06:14.098Z,6.85
2022-11-07T23:08:42.434Z,6.86
2022-11-07T23:11:44.781Z,6.87
2022-11-07T23:14:04.078Z,6.85
2022-11-07T23:16:33.716Z,6.84
2022-11-07T23:19:03.030Z,6.85
2022-11-07T23:21:32.521Z,6.85
2022-11-07T23:24:01.081Z,6.81
2022-11-07T23:26:33.609Z,6.78
2022-11-07T23:29:07.310Z,6.72
2022-11-07T23:31:38.780Z,6.70
2022-11-07T23:34:06.726Z,6.70
2022-11-07T23:36:36.264Z,6.72
2022-11-07T23:39:05.802Z,6.75
2022-11-07T23:41:33.666Z,6.71
2022-11-07T23:44:01.641Z,6.58
2022-11-07T23:46:46.974Z,6.50
2022-11-07T23:49:32.432Z,6.46
2022-11-07T23:52:01.559Z,6.49
2022-11-07T23:54:46.705Z,6.43
2022-11-07T23:57:14.467Z,6.45
2022-11-07T23:59:59.886Z,6.40
